AFL1251 UWKE-UUEE
Flight info
| Callsign | AFL1251 |
|---|---|
| Flight time | 1h 30m |
| Altitude | 34000 |
| Route | N0450F340 BAKAP L158 DIMGI |
| Aircraft | A321/M-VGDW/C |
Departure
| Time | 2026-05-07 17:07 |
|---|---|
| Airport | Begishevo Airport (UWKE) |
Arrival
| Time | 2026-05-07 18:37 |
|---|---|
| Airport | Sheremetyevo International Airport (UUEE) |
| Time | Latitude | Longitude | Altitude | Speed | Heading |
|---|---|---|---|---|---|
| 2026-05-07 16:42 | 55.56709 | 52.10297 | 657 ft | 0 kts | 317° |
| 2026-05-07 16:57 | 55.56699 | 52.10318 | 653 ft | 2 kts | 311° |
| 2026-05-07 16:57 | 55.56690 | 52.10343 | 656 ft | 2 kts | 277° |
| 2026-05-07 16:58 | 55.56692 | 52.10371 | 654 ft | 2 kts | 227° |
| 2026-05-07 16:58 | 55.56697 | 52.10382 | 655 ft | 0 kts | 225° |
| 2026-05-07 17:01 | 55.56666 | 52.10319 | 654 ft | 13 kts | 241° |
| 2026-05-07 17:01 | 55.56672 | 52.10167 | 654 ft | 12 kts | 248° |
| 2026-05-07 17:01 | 55.56609 | 52.10039 | 652 ft | 11 kts | 227° |
| 2026-05-07 17:02 | 55.56614 | 52.09922 | 652 ft | 12 kts | 308° |
| 2026-05-07 17:02 | 55.56659 | 52.09845 | 653 ft | 11 kts | 317° |
| 2026-05-07 17:02 | 55.56697 | 52.09713 | 653 ft | 13 kts | 250° |
| 2026-05-07 17:02 | 55.56631 | 52.09567 | 653 ft | 17 kts | 227° |
| 2026-05-07 17:03 | 55.56552 | 52.09414 | 654 ft | 16 kts | 227° |
| 2026-05-07 17:03 | 55.56477 | 52.09271 | 651 ft | 15 kts | 227° |
| 2026-05-07 17:03 | 55.56409 | 52.09142 | 654 ft | 13 kts | 227° |
| 2026-05-07 17:03 | 55.56342 | 52.09015 | 653 ft | 21 kts | 227° |
| 2026-05-07 17:04 | 55.56220 | 52.08782 | 653 ft | 27 kts | 227° |
| 2026-05-07 17:04 | 55.56091 | 52.08543 | 653 ft | 27 kts | 226° |
| 2026-05-07 17:04 | 55.55967 | 52.08311 | 653 ft | 25 kts | 227° |
| 2026-05-07 17:04 | 55.55871 | 52.08129 | 655 ft | 18 kts | 227° |
| 2026-05-07 17:05 | 55.55793 | 52.07982 | 653 ft | 14 kts | 226° |
| 2026-05-07 17:05 | 55.55717 | 52.07909 | 654 ft | 10 kts | 212° |
| 2026-05-07 17:05 | 55.55724 | 52.07874 | 654 ft | 4 kts | 349° |
| 2026-05-07 17:05 | 55.55774 | 52.07941 | 655 ft | 12 kts | 47° |
| 2026-05-07 17:06 | 55.55830 | 52.08050 | 655 ft | 15 kts | 48° |
| 2026-05-07 17:06 | 55.56055 | 52.08477 | 652 ft | 83 kts | 46° |
| 2026-05-07 17:06 | 55.56587 | 52.09482 | 653 ft | 138 kts | 47° |
| 2026-05-07 17:06 | 55.57333 | 52.10889 | 826 ft | 164 kts | 47° |
| 2026-05-07 17:07 | 55.58066 | 52.12308 | 1560 ft | 157 kts | 47° |
| 2026-05-07 17:07 | 55.58787 | 52.13718 | 2266 ft | 152 kts | 47° |
| 2026-05-07 17:07 | 55.59511 | 52.15117 | 2765 ft | 162 kts | 46° |
| 2026-05-07 17:07 | 55.60386 | 52.16544 | 3014 ft | 181 kts | 29° |
| 2026-05-07 17:08 | 55.61657 | 52.17104 | 3151 ft | 200 kts | 359° |
| 2026-05-07 17:08 | 55.63041 | 52.16375 | 3276 ft | 222 kts | 328° |
| 2026-05-07 17:08 | 55.64109 | 52.14226 | 3419 ft | 249 kts | 297° |
| 2026-05-07 17:08 | 55.64460 | 52.11123 | 3808 ft | 268 kts | 265° |
| 2026-05-07 17:09 | 55.63911 | 52.07937 | 4530 ft | 275 kts | 249° |
| 2026-05-07 17:09 | 55.63432 | 52.04683 | 5256 ft | 274 kts | 270° |
| 2026-05-07 17:09 | 55.63527 | 52.01326 | 6031 ft | 273 kts | 281° |
| 2026-05-07 17:09 | 55.63837 | 51.98002 | 6797 ft | 275 kts | 284° |
| 2026-05-07 17:10 | 55.64184 | 51.94662 | 7525 ft | 278 kts | 283° |
| 2026-05-07 17:10 | 55.64499 | 51.91267 | 8251 ft | 281 kts | 281° |
| 2026-05-07 17:10 | 55.64765 | 51.87830 | 8983 ft | 284 kts | 279° |
| 2026-05-07 17:10 | 55.64989 | 51.84333 | 9705 ft | 287 kts | 277° |
| 2026-05-07 17:11 | 55.65185 | 51.80787 | 10262 ft | 296 kts | 277° |
| 2026-05-07 17:11 | 55.65374 | 51.77020 | 10398 ft | 318 kts | 276° |
| 2026-05-07 17:11 | 55.65570 | 51.72979 | 10519 ft | 340 kts | 276° |
| 2026-05-07 17:11 | 55.65771 | 51.68701 | 10741 ft | 356 kts | 276° |
| 2026-05-07 17:12 | 55.65974 | 51.64290 | 11284 ft | 362 kts | 276° |
| 2026-05-07 17:12 | 55.66177 | 51.59877 | 11922 ft | 364 kts | 276° |
| 2026-05-07 17:12 | 55.66383 | 51.55386 | 12598 ft | 366 kts | 276° |
| 2026-05-07 17:12 | 55.66592 | 51.50879 | 13262 ft | 369 kts | 276° |
| 2026-05-07 17:13 | 55.66800 | 51.46337 | 13894 ft | 371 kts | 275° |
| 2026-05-07 17:13 | 55.67009 | 51.41768 | 14446 ft | 374 kts | 275° |
| 2026-05-07 17:13 | 55.67217 | 51.37159 | 14992 ft | 377 kts | 275° |
| 2026-05-07 17:13 | 55.67424 | 51.32515 | 15541 ft | 379 kts | 275° |
| 2026-05-07 17:14 | 55.67628 | 51.27856 | 16122 ft | 380 kts | 275° |
| 2026-05-07 17:14 | 55.67834 | 51.23171 | 16665 ft | 383 kts | 275° |
| 2026-05-07 17:14 | 55.68042 | 51.18453 | 17177 ft | 385 kts | 275° |
| 2026-05-07 17:14 | 55.68249 | 51.13693 | 17682 ft | 388 kts | 275° |
| 2026-05-07 17:15 | 55.68456 | 51.08891 | 18188 ft | 391 kts | 274° |
| 2026-05-07 17:15 | 55.68662 | 51.04063 | 18618 ft | 394 kts | 274° |
| 2026-05-07 17:15 | 55.68866 | 50.99206 | 19050 ft | 397 kts | 274° |
| 2026-05-07 17:15 | 55.69064 | 50.94364 | 19478 ft | 399 kts | 274° |
| 2026-05-07 17:16 | 55.69264 | 50.89446 | 19898 ft | 402 kts | 274° |
| 2026-05-07 17:16 | 55.69465 | 50.84490 | 20320 ft | 404 kts | 274° |
| 2026-05-07 17:16 | 55.69665 | 50.79502 | 20736 ft | 407 kts | 274° |
| 2026-05-07 17:16 | 55.69866 | 50.74478 | 21156 ft | 409 kts | 274° |
| 2026-05-07 17:17 | 55.70067 | 50.69432 | 21570 ft | 412 kts | 274° |
| 2026-05-07 17:17 | 55.70268 | 50.64350 | 21990 ft | 415 kts | 274° |
| 2026-05-07 17:17 | 55.70465 | 50.59235 | 22401 ft | 417 kts | 274° |
| 2026-05-07 17:17 | 55.70661 | 50.54089 | 22807 ft | 420 kts | 274° |
| 2026-05-07 17:18 | 55.70856 | 50.48901 | 23164 ft | 423 kts | 274° |
| 2026-05-07 17:18 | 55.71052 | 50.43674 | 23537 ft | 426 kts | 274° |
| 2026-05-07 17:18 | 55.71249 | 50.38413 | 23864 ft | 429 kts | 274° |
| 2026-05-07 17:18 | 55.71446 | 50.33124 | 24197 ft | 431 kts | 274° |
| 2026-05-07 17:19 | 55.71639 | 50.27798 | 24537 ft | 433 kts | 274° |
| 2026-05-07 17:19 | 55.71830 | 50.22473 | 24869 ft | 435 kts | 274° |
| 2026-05-07 17:19 | 55.72019 | 50.17111 | 25202 ft | 437 kts | 274° |
| 2026-05-07 17:19 | 55.72206 | 50.11724 | 25526 ft | 438 kts | 274° |
| 2026-05-07 17:20 | 55.72392 | 50.06301 | 25845 ft | 440 kts | 274° |
| 2026-05-07 17:20 | 55.72575 | 50.00878 | 26158 ft | 442 kts | 274° |
| 2026-05-07 17:20 | 55.72760 | 49.95420 | 26463 ft | 444 kts | 274° |
| 2026-05-07 17:20 | 55.72945 | 49.89927 | 26767 ft | 446 kts | 274° |
| 2026-05-07 17:21 | 55.73127 | 49.84422 | 27070 ft | 448 kts | 274° |
| 2026-05-07 17:21 | 55.73306 | 49.78907 | 27377 ft | 450 kts | 274° |
| 2026-05-07 17:21 | 55.73482 | 49.73354 | 27662 ft | 452 kts | 274° |
| 2026-05-07 17:21 | 55.73655 | 49.67773 | 28010 ft | 452 kts | 274° |
| 2026-05-07 17:22 | 55.73826 | 49.62194 | 28332 ft | 453 kts | 274° |
| 2026-05-07 17:22 | 55.73994 | 49.56622 | 28743 ft | 451 kts | 274° |
| 2026-05-07 17:22 | 55.74158 | 49.51065 | 29149 ft | 450 kts | 274° |
| 2026-05-07 17:22 | 55.74321 | 49.45521 | 29547 ft | 449 kts | 274° |
| 2026-05-07 17:23 | 55.74480 | 49.39989 | 29930 ft | 448 kts | 274° |
| 2026-05-07 17:23 | 55.74637 | 49.34467 | 30271 ft | 447 kts | 274° |
| 2026-05-07 17:23 | 55.74791 | 49.29028 | 30594 ft | 447 kts | 274° |
| 2026-05-07 17:23 | 55.74945 | 49.23525 | 30924 ft | 446 kts | 274° |
| 2026-05-07 17:24 | 55.75095 | 49.18031 | 31262 ft | 445 kts | 274° |
| 2026-05-07 17:24 | 55.75239 | 49.12545 | 31597 ft | 444 kts | 274° |
| 2026-05-07 17:24 | 55.75379 | 49.07067 | 31932 ft | 444 kts | 274° |
| 2026-05-07 17:24 | 55.75519 | 49.01599 | 32261 ft | 443 kts | 274° |
| 2026-05-07 17:25 | 55.75660 | 48.96137 | 32579 ft | 443 kts | 274° |
| 2026-05-07 17:25 | 55.75801 | 48.90679 | 32939 ft | 441 kts | 273° |
| 2026-05-07 17:25 | 55.75937 | 48.85251 | 33347 ft | 439 kts | 273° |
| 2026-05-07 17:25 | 55.76067 | 48.79847 | 33719 ft | 437 kts | 273° |
| 2026-05-07 17:26 | 55.76195 | 48.74453 | 33958 ft | 437 kts | 273° |
| 2026-05-07 17:26 | 55.76320 | 48.69084 | 33982 ft | 434 kts | 273° |
| 2026-05-07 17:26 | 55.76562 | 48.58396 | 33983 ft | 432 kts | 273° |
| 2026-05-07 17:27 | 55.76792 | 48.47748 | 33983 ft | 432 kts | 273° |
| 2026-05-07 17:27 | 55.77012 | 48.37086 | 33983 ft | 432 kts | 273° |
| 2026-05-07 17:28 | 55.77217 | 48.26418 | 33984 ft | 432 kts | 273° |
| 2026-05-07 17:28 | 55.77423 | 48.15745 | 33977 ft | 433 kts | 273° |
| 2026-05-07 17:29 | 55.77624 | 48.05064 | 33987 ft | 432 kts | 272° |
| 2026-05-07 17:29 | 55.77807 | 47.94394 | 33991 ft | 432 kts | 272° |
| 2026-05-07 17:30 | 55.77980 | 47.83809 | 33990 ft | 431 kts | 272° |
| 2026-05-07 17:30 | 55.78150 | 47.73149 | 33985 ft | 431 kts | 272° |
| 2026-05-07 17:31 | 55.78303 | 47.62517 | 33982 ft | 431 kts | 272° |
| 2026-05-07 17:31 | 55.78448 | 47.51864 | 33976 ft | 431 kts | 272° |
| 2026-05-07 17:32 | 55.78589 | 47.41221 | 33969 ft | 431 kts | 272° |
| 2026-05-07 17:32 | 55.78702 | 47.32355 | 33972 ft | 431 kts | 272° |
| 2026-05-07 17:33 | 55.78848 | 47.19935 | 33990 ft | 430 kts | 271° |
| 2026-05-07 17:33 | 55.78955 | 47.09395 | 33990 ft | 429 kts | 271° |
| 2026-05-07 17:34 | 55.79059 | 46.98808 | 33985 ft | 428 kts | 271° |
| 2026-05-07 17:34 | 55.79151 | 46.88224 | 33982 ft | 428 kts | 271° |
| 2026-05-07 17:35 | 55.79231 | 46.77663 | 33972 ft | 427 kts | 271° |
| 2026-05-07 17:35 | 55.79305 | 46.67092 | 33968 ft | 427 kts | 271° |
| 2026-05-07 17:36 | 55.79371 | 46.56537 | 33944 ft | 428 kts | 271° |
| 2026-05-07 17:36 | 55.79431 | 46.45933 | 33960 ft | 428 kts | 271° |
| 2026-05-07 17:37 | 55.79697 | 46.35372 | 33968 ft | 427 kts | 274° |
| 2026-05-07 17:37 | 55.80116 | 46.24834 | 33968 ft | 427 kts | 274° |
| 2026-05-07 17:38 | 55.80505 | 46.14321 | 33966 ft | 426 kts | 274° |
| 2026-05-07 17:38 | 55.80833 | 46.03871 | 33961 ft | 425 kts | 273° |
| 2026-05-07 17:39 | 55.81131 | 45.93377 | 33954 ft | 425 kts | 273° |
| 2026-05-07 17:39 | 55.81433 | 45.82875 | 33946 ft | 425 kts | 273° |
| 2026-05-07 17:40 | 55.81734 | 45.72373 | 33963 ft | 425 kts | 273° |
| 2026-05-07 17:40 | 55.82020 | 45.61883 | 33962 ft | 424 kts | 273° |
| 2026-05-07 17:41 | 55.82299 | 45.51406 | 33960 ft | 424 kts | 272° |
| 2026-05-07 17:41 | 55.82568 | 45.40936 | 33952 ft | 424 kts | 272° |
| 2026-05-07 17:42 | 55.82827 | 45.30476 | 33941 ft | 423 kts | 272° |
| 2026-05-07 17:42 | 55.83075 | 45.20023 | 33946 ft | 423 kts | 272° |
| 2026-05-07 17:43 | 55.83321 | 45.09573 | 33943 ft | 423 kts | 272° |
| 2026-05-07 17:43 | 55.83555 | 44.99123 | 33938 ft | 423 kts | 272° |
| 2026-05-07 17:44 | 55.83786 | 44.88665 | 33928 ft | 423 kts | 272° |
| 2026-05-07 17:44 | 55.84015 | 44.78188 | 33924 ft | 424 kts | 272° |
| 2026-05-07 17:45 | 55.84231 | 44.67699 | 33905 ft | 424 kts | 272° |
| 2026-05-07 17:45 | 55.84439 | 44.57213 | 33910 ft | 425 kts | 272° |
| 2026-05-07 17:46 | 55.84639 | 44.46697 | 33915 ft | 425 kts | 272° |
| 2026-05-07 17:46 | 55.84825 | 44.36260 | 33909 ft | 425 kts | 272° |
| 2026-05-07 17:47 | 55.85005 | 44.25755 | 33913 ft | 425 kts | 271° |
| 2026-05-07 17:47 | 55.85177 | 44.15241 | 33933 ft | 425 kts | 271° |
| 2026-05-07 17:48 | 55.85337 | 44.04725 | 33925 ft | 424 kts | 271° |
| 2026-05-07 17:48 | 55.85464 | 43.96007 | 33925 ft | 424 kts | 271° |
| 2026-05-07 17:49 | 55.85612 | 43.85501 | 33927 ft | 424 kts | 271° |
| 2026-05-07 17:49 | 55.85751 | 43.74999 | 33914 ft | 424 kts | 271° |
| 2026-05-07 17:50 | 55.85883 | 43.64524 | 33924 ft | 424 kts | 271° |
| 2026-05-07 17:50 | 55.85999 | 43.54018 | 33919 ft | 424 kts | 271° |
| 2026-05-07 17:51 | 55.86106 | 43.43525 | 33928 ft | 424 kts | 271° |
| 2026-05-07 17:51 | 55.86212 | 43.33040 | 33920 ft | 423 kts | 271° |
| 2026-05-07 17:52 | 55.86316 | 43.22565 | 33922 ft | 423 kts | 271° |
| 2026-05-07 17:52 | 55.86407 | 43.12164 | 33907 ft | 423 kts | 271° |
| 2026-05-07 17:53 | 55.86494 | 43.01695 | 33915 ft | 423 kts | 271° |
| 2026-05-07 17:53 | 55.86567 | 42.91217 | 33911 ft | 423 kts | 270° |
| 2026-05-07 17:54 | 55.86627 | 42.80752 | 33910 ft | 423 kts | 270° |
| 2026-05-07 17:54 | 55.86677 | 42.70289 | 33912 ft | 422 kts | 270° |
| 2026-05-07 17:55 | 55.86721 | 42.59897 | 33896 ft | 422 kts | 270° |
| 2026-05-07 17:55 | 55.86761 | 42.49436 | 33900 ft | 422 kts | 270° |
| 2026-05-07 17:56 | 55.86792 | 42.38975 | 33891 ft | 422 kts | 270° |
| 2026-05-07 17:56 | 55.86811 | 42.28513 | 33892 ft | 423 kts | 270° |
| 2026-05-07 17:57 | 55.86819 | 42.19800 | 33908 ft | 423 kts | 270° |
| 2026-05-07 17:57 | 55.86818 | 42.07568 | 33905 ft | 423 kts | 270° |
| 2026-05-07 17:58 | 55.86811 | 41.97100 | 33898 ft | 423 kts | 270° |
| 2026-05-07 17:58 | 55.86793 | 41.86632 | 33899 ft | 423 kts | 270° |
| 2026-05-07 17:59 | 55.86758 | 41.76163 | 33900 ft | 422 kts | 269° |
| 2026-05-07 17:59 | 55.86504 | 41.65720 | 33902 ft | 422 kts | 266° |
| 2026-05-07 18:00 | 55.86132 | 41.55284 | 33896 ft | 422 kts | 266° |
| 2026-05-07 18:00 | 55.85772 | 41.44843 | 33900 ft | 422 kts | 267° |
| 2026-05-07 18:01 | 55.85440 | 41.34497 | 33907 ft | 422 kts | 267° |
| 2026-05-07 18:01 | 55.85113 | 41.24054 | 33903 ft | 422 kts | 267° |
| 2026-05-07 18:02 | 55.84582 | 41.08428 | 33921 ft | 421 kts | 266° |
| 2026-05-07 18:03 | 55.84221 | 40.98038 | 33923 ft | 420 kts | 266° |
| 2026-05-07 18:03 | 55.83852 | 40.87659 | 33918 ft | 420 kts | 266° |
| 2026-05-07 18:04 | 55.83477 | 40.77291 | 33898 ft | 420 kts | 266° |
| 2026-05-07 18:04 | 55.83090 | 40.66927 | 33905 ft | 420 kts | 266° |
| 2026-05-07 18:05 | 55.82695 | 40.56545 | 33691 ft | 421 kts | 266° |
| 2026-05-07 18:05 | 55.82488 | 40.51347 | 33415 ft | 422 kts | 266° |
| 2026-05-07 18:05 | 55.82274 | 40.46155 | 33143 ft | 422 kts | 266° |
| 2026-05-07 18:05 | 55.82055 | 40.40944 | 32870 ft | 423 kts | 266° |
| 2026-05-07 18:06 | 55.81835 | 40.35719 | 32197 ft | 426 kts | 266° |
| 2026-05-07 18:06 | 55.81613 | 40.30433 | 31306 ft | 430 kts | 266° |
| 2026-05-07 18:06 | 55.81390 | 40.25119 | 30526 ft | 432 kts | 266° |
| 2026-05-07 18:06 | 55.81163 | 40.19768 | 29514 ft | 437 kts | 266° |
| 2026-05-07 18:07 | 55.80935 | 40.14416 | 28517 ft | 440 kts | 265° |
| 2026-05-07 18:07 | 55.80699 | 40.08994 | 27605 ft | 441 kts | 265° |
| 2026-05-07 18:07 | 55.80459 | 40.03559 | 26767 ft | 440 kts | 265° |
| 2026-05-07 18:07 | 55.80218 | 39.98188 | 26369 ft | 430 kts | 265° |
| 2026-05-07 18:08 | 55.79984 | 39.92999 | 26234 ft | 414 kts | 265° |
| 2026-05-07 18:08 | 55.79755 | 39.87976 | 26110 ft | 399 kts | 265° |
| 2026-05-07 18:08 | 55.79533 | 39.83149 | 25975 ft | 385 kts | 265° |
| 2026-05-07 18:08 | 55.79305 | 39.78465 | 25697 ft | 376 kts | 264° |
| 2026-05-07 18:09 | 55.79032 | 39.73889 | 25486 ft | 368 kts | 263° |
| 2026-05-07 18:09 | 55.78729 | 39.69381 | 25320 ft | 368 kts | 263° |
| 2026-05-07 18:09 | 55.78411 | 39.64873 | 25105 ft | 367 kts | 263° |
| 2026-05-07 18:09 | 55.78093 | 39.60380 | 24886 ft | 366 kts | 263° |
| 2026-05-07 18:10 | 55.77782 | 39.55904 | 24678 ft | 364 kts | 263° |
| 2026-05-07 18:10 | 55.77477 | 39.51465 | 24451 ft | 361 kts | 263° |
| 2026-05-07 18:10 | 55.77171 | 39.47055 | 24237 ft | 359 kts | 263° |
| 2026-05-07 18:10 | 55.76866 | 39.42664 | 24022 ft | 358 kts | 263° |
| 2026-05-07 18:11 | 55.76564 | 39.38290 | 23829 ft | 356 kts | 263° |
| 2026-05-07 18:11 | 55.76366 | 39.35409 | 23781 ft | 356 kts | 263° |
| 2026-05-07 18:11 | 55.75963 | 39.29571 | 23659 ft | 355 kts | 263° |
| 2026-05-07 18:11 | 55.75658 | 39.25207 | 23575 ft | 355 kts | 263° |
| 2026-05-07 18:12 | 55.75351 | 39.20857 | 23483 ft | 355 kts | 263° |
| 2026-05-07 18:12 | 55.75041 | 39.16514 | 23381 ft | 354 kts | 262° |
| 2026-05-07 18:12 | 55.74729 | 39.12180 | 23270 ft | 354 kts | 262° |
| 2026-05-07 18:12 | 55.74422 | 39.07909 | 23195 ft | 353 kts | 262° |
| 2026-05-07 18:13 | 55.74104 | 39.03540 | 23100 ft | 353 kts | 262° |
| 2026-05-07 18:13 | 55.73793 | 38.99271 | 23013 ft | 352 kts | 262° |
| 2026-05-07 18:13 | 55.73486 | 38.94960 | 22916 ft | 352 kts | 264° |
| 2026-05-07 18:13 | 55.73474 | 38.90619 | 22692 ft | 353 kts | 274° |
| 2026-05-07 18:14 | 55.73690 | 38.86300 | 22287 ft | 350 kts | 274° |
| 2026-05-07 18:14 | 55.73911 | 38.82024 | 21932 ft | 348 kts | 274° |
| 2026-05-07 18:14 | 55.74130 | 38.77752 | 21589 ft | 346 kts | 274° |
| 2026-05-07 18:14 | 55.74340 | 38.73522 | 21225 ft | 343 kts | 274° |
| 2026-05-07 18:15 | 55.74543 | 38.69332 | 20881 ft | 341 kts | 273° |
| 2026-05-07 18:15 | 55.74745 | 38.65156 | 20536 ft | 339 kts | 273° |
| 2026-05-07 18:15 | 55.74968 | 38.61006 | 20196 ft | 337 kts | 277° |
| 2026-05-07 18:15 | 55.75567 | 38.56986 | 19893 ft | 338 kts | 289° |
| 2026-05-07 18:16 | 55.76654 | 38.53262 | 19873 ft | 342 kts | 300° |
| 2026-05-07 18:16 | 55.78034 | 38.49800 | 19879 ft | 344 kts | 302° |
| 2026-05-07 18:16 | 55.79418 | 38.46325 | 19879 ft | 344 kts | 301° |
| 2026-05-07 18:16 | 55.80793 | 38.42850 | 19881 ft | 342 kts | 301° |
| 2026-05-07 18:17 | 55.82130 | 38.39460 | 19877 ft | 327 kts | 301° |
| 2026-05-07 18:17 | 55.83434 | 38.36196 | 19749 ft | 322 kts | 302° |
| 2026-05-07 18:17 | 55.84774 | 38.33023 | 19415 ft | 319 kts | 303° |
| 2026-05-07 18:17 | 55.86110 | 38.29960 | 19111 ft | 316 kts | 303° |
| 2026-05-07 18:18 | 55.87483 | 38.26846 | 18811 ft | 314 kts | 303° |
| 2026-05-07 18:18 | 55.88811 | 38.23837 | 18502 ft | 312 kts | 303° |
| 2026-05-07 18:18 | 55.90142 | 38.20803 | 18213 ft | 311 kts | 303° |
| 2026-05-07 18:18 | 55.91465 | 38.17771 | 17900 ft | 309 kts | 303° |
| 2026-05-07 18:19 | 55.92800 | 38.14700 | 17586 ft | 308 kts | 303° |
| 2026-05-07 18:19 | 55.94101 | 38.11692 | 17301 ft | 306 kts | 302° |
| 2026-05-07 18:19 | 55.95394 | 38.08682 | 17013 ft | 305 kts | 302° |
| 2026-05-07 18:19 | 55.96664 | 38.05714 | 16731 ft | 304 kts | 302° |
| 2026-05-07 18:20 | 55.97944 | 38.02727 | 16438 ft | 302 kts | 302° |
| 2026-05-07 18:20 | 55.99219 | 37.99753 | 16152 ft | 301 kts | 301° |
| 2026-05-07 18:20 | 56.00276 | 37.96592 | 15872 ft | 293 kts | 289° |
| 2026-05-07 18:20 | 56.00863 | 37.93155 | 15688 ft | 288 kts | 277° |
| 2026-05-07 18:21 | 56.01221 | 37.89641 | 15520 ft | 287 kts | 277° |
| 2026-05-07 18:21 | 56.01585 | 37.86139 | 15336 ft | 287 kts | 277° |
| 2026-05-07 18:21 | 56.01962 | 37.82641 | 15155 ft | 287 kts | 280° |
| 2026-05-07 18:21 | 56.02700 | 37.79314 | 14991 ft | 292 kts | 296° |
| 2026-05-07 18:22 | 56.03991 | 37.76469 | 14778 ft | 300 kts | 313° |
| 2026-05-07 18:22 | 56.05114 | 37.74989 | 14672 ft | 306 kts | 324° |
| 2026-05-07 18:22 | 56.07711 | 37.72768 | 14414 ft | 309 kts | 329° |
| 2026-05-07 18:22 | 56.09665 | 37.71159 | 14229 ft | 309 kts | 329° |
| 2026-05-07 18:23 | 56.11614 | 37.69552 | 14018 ft | 308 kts | 329° |
| 2026-05-07 18:23 | 56.13517 | 37.67856 | 13811 ft | 304 kts | 323° |
| 2026-05-07 18:23 | 56.15341 | 37.65924 | 13371 ft | 304 kts | 323° |
| 2026-05-07 18:23 | 56.17156 | 37.63994 | 12985 ft | 302 kts | 322° |
| 2026-05-07 18:24 | 56.18957 | 37.62077 | 12615 ft | 300 kts | 322° |
| 2026-05-07 18:24 | 56.20745 | 37.60171 | 12242 ft | 298 kts | 322° |
| 2026-05-07 18:24 | 56.22524 | 37.58279 | 11870 ft | 296 kts | 322° |
| 2026-05-07 18:24 | 56.24293 | 37.56395 | 11504 ft | 295 kts | 322° |
| 2026-05-07 18:25 | 56.26052 | 37.54516 | 11142 ft | 293 kts | 322° |
| 2026-05-07 18:25 | 56.27802 | 37.52645 | 10801 ft | 292 kts | 321° |
| 2026-05-07 18:25 | 56.29398 | 37.50519 | 10443 ft | 277 kts | 302° |
| 2026-05-07 18:25 | 56.30300 | 37.47619 | 10190 ft | 259 kts | 279° |
| 2026-05-07 18:26 | 56.30446 | 37.44514 | 9878 ft | 249 kts | 258° |
| 2026-05-07 18:26 | 56.29899 | 37.41632 | 9531 ft | 243 kts | 238° |
| 2026-05-07 18:26 | 56.28955 | 37.39098 | 9194 ft | 244 kts | 236° |
| 2026-05-07 18:26 | 56.28000 | 37.36574 | 8875 ft | 244 kts | 236° |
| 2026-05-07 18:27 | 56.27049 | 37.34059 | 8548 ft | 243 kts | 237° |
| 2026-05-07 18:27 | 56.25920 | 37.31813 | 8221 ft | 245 kts | 219° |
| 2026-05-07 18:27 | 56.24357 | 37.30519 | 7898 ft | 254 kts | 198° |
| 2026-05-07 18:27 | 56.23173 | 37.30349 | 7666 ft | 263 kts | 182° |
| 2026-05-07 18:28 | 56.20740 | 37.31374 | 7207 ft | 270 kts | 172° |
| 2026-05-07 18:28 | 56.18971 | 37.32281 | 7072 ft | 259 kts | 170° |
| 2026-05-07 18:28 | 56.17418 | 37.33921 | 6943 ft | 267 kts | 138° |
| 2026-05-07 18:28 | 56.16618 | 37.36935 | 6766 ft | 275 kts | 99° |
| 2026-05-07 18:29 | 56.16746 | 37.40360 | 6536 ft | 277 kts | 80° |
| 2026-05-07 18:29 | 56.17203 | 37.43717 | 6261 ft | 277 kts | 74° |
| 2026-05-07 18:29 | 56.17754 | 37.46961 | 5969 ft | 274 kts | 72° |
| 2026-05-07 18:29 | 56.18323 | 37.50202 | 5681 ft | 271 kts | 73° |
| 2026-05-07 18:30 | 56.18870 | 37.53424 | 5409 ft | 268 kts | 75° |
| 2026-05-07 18:30 | 56.19076 | 37.56709 | 5135 ft | 263 kts | 97° |
| 2026-05-07 18:30 | 56.18652 | 37.59844 | 4911 ft | 255 kts | 118° |
| 2026-05-07 18:30 | 56.17707 | 37.62477 | 4808 ft | 250 kts | 137° |
| 2026-05-07 18:31 | 56.16494 | 37.64702 | 4688 ft | 249 kts | 139° |
| 2026-05-07 18:31 | 56.15281 | 37.66918 | 4564 ft | 249 kts | 139° |
| 2026-05-07 18:31 | 56.14070 | 37.69136 | 4436 ft | 248 kts | 138° |
| 2026-05-07 18:31 | 56.12866 | 37.71339 | 4310 ft | 247 kts | 138° |
| 2026-05-07 18:32 | 56.11661 | 37.73541 | 4204 ft | 247 kts | 138° |
| 2026-05-07 18:32 | 56.10438 | 37.75686 | 4097 ft | 244 kts | 147° |
| 2026-05-07 18:32 | 56.08958 | 37.76886 | 3985 ft | 234 kts | 175° |
| 2026-05-07 18:32 | 56.07374 | 37.76742 | 3792 ft | 227 kts | 200° |
| 2026-05-07 18:33 | 56.05867 | 37.75873 | 3599 ft | 227 kts | 201° |
| 2026-05-07 18:33 | 56.04360 | 37.75005 | 3419 ft | 228 kts | 200° |
| 2026-05-07 18:33 | 56.02934 | 37.73841 | 3229 ft | 225 kts | 218° |
| 2026-05-07 18:33 | 56.01849 | 37.71868 | 3055 ft | 223 kts | 238° |
| 2026-05-07 18:34 | 56.01248 | 37.69365 | 2884 ft | 215 kts | 255° |
| 2026-05-07 18:34 | 56.00880 | 37.66839 | 2693 ft | 205 kts | 256° |
| 2026-05-07 18:34 | 56.00524 | 37.64400 | 2523 ft | 201 kts | 255° |
| 2026-05-07 18:34 | 56.00176 | 37.62025 | 2380 ft | 189 kts | 255° |
| 2026-05-07 18:35 | 55.99863 | 37.59900 | 2302 ft | 167 kts | 255° |
| 2026-05-07 18:35 | 55.99578 | 37.57964 | 2133 ft | 158 kts | 255° |
| 2026-05-07 18:35 | 55.99305 | 37.56111 | 1960 ft | 149 kts | 255° |
| 2026-05-07 18:35 | 55.99046 | 37.54359 | 1764 ft | 144 kts | 255° |
| 2026-05-07 18:36 | 55.98795 | 37.52660 | 1598 ft | 143 kts | 255° |
| 2026-05-07 18:36 | 55.98541 | 37.50943 | 1369 ft | 144 kts | 255° |
| 2026-05-07 18:36 | 55.98289 | 37.49204 | 1161 ft | 147 kts | 256° |
| 2026-05-07 18:36 | 55.98037 | 37.47429 | 993 ft | 148 kts | 255° |
| 2026-05-07 18:37 | 55.97760 | 37.45647 | 808 ft | 149 kts | 254° |
| 2026-05-07 18:37 | 55.97497 | 37.43862 | 659 ft | 147 kts | 255° |
| 2026-05-07 18:37 | 55.97260 | 37.42255 | 642 ft | 109 kts | 254° |
| 2026-05-07 18:37 | 55.97149 | 37.41546 | 640 ft | 12 kts | 255° |
| 2026-05-07 18:38 | 55.97144 | 37.41515 | 643 ft | 3 kts | 255° |
| 2026-05-07 18:38 | 55.97146 | 37.41389 | 647 ft | 15 kts | 297° |
| 2026-05-07 18:38 | 55.97221 | 37.41317 | 639 ft | 11 kts | 341° |
| 2026-05-07 18:38 | 55.97269 | 37.41289 | 639 ft | 10 kts | 346° |
| 2026-05-07 18:39 | 55.97338 | 37.41262 | 640 ft | 10 kts | 348° |
| 2026-05-07 18:39 | 55.97408 | 37.41232 | 640 ft | 10 kts | 345° |
| 2026-05-07 18:39 | 55.97477 | 37.41200 | 639 ft | 10 kts | 346° |
| 2026-05-07 18:39 | 55.97539 | 37.41233 | 639 ft | 11 kts | 54° |
| 2026-05-07 18:40 | 55.97561 | 37.41362 | 642 ft | 11 kts | 74° |
| 2026-05-07 18:40 | 55.97581 | 37.41485 | 641 ft | 10 kts | 75° |
| 2026-05-07 18:40 | 55.97604 | 37.41588 | 646 ft | 8 kts | 45° |
| 2026-05-07 18:40 | 55.97652 | 37.41594 | 641 ft | 7 kts | 345° |
| 2026-05-07 18:41 | 55.97694 | 37.41574 | 639 ft | 6 kts | 345° |
| 2026-05-07 18:41 | 55.97729 | 37.41557 | 643 ft | 6 kts | 345° |
| 2026-05-07 18:41 | 55.97779 | 37.41534 | 641 ft | 8 kts | 345° |
| 2026-05-07 18:41 | 55.97825 | 37.41541 | 641 ft | 6 kts | 53° |
| 2026-05-07 18:42 | 55.97835 | 37.41606 | 643 ft | 5 kts | 75° |
| 2026-05-07 18:42 | 55.97839 | 37.41635 | 644 ft | 0 kts | 75° |